logo
Rechercher aéroport 
image banner adimage banner adimage banner ad
image banner ad

CA993 - Atlantic School Of Skydiving

Situé à , Canada

ICAO - , IATA -

Données fournies par Airmate  

Information générale

Coordonnées: N45°16'8" W63°29'8"
Élévation : 170 feet MSL.
 
Voir autres Aéroports à Nova Scotia

Données opérationnelles

Special qualification required
Heure actuelle UTC:
Heure actuelle locale:
Météo à : CYHZ - Stanfield Intl ( 43 km )
METAR: CYHZ 220700Z 22009KT 15SM SCT120 12/10 A2987 RMK AC4 SLP117
TAF: TAF CYHZ 220540Z 2206/2306 23005KT P6SM SCT120 BKN240 PROB30 2208/2211 1SM BR FM221200 25008KT P6SM BKN100 BECMG 2218/2220 20008KT RMK NXT FCST BY 220900Z
Voir NOTAMs / SUP AIP / TFR affectant cet aéroport [VIEW]
Fréquences de communication: [VIEW]

Pistes:

Coordonnées de l'aéroport

Adresse: Canada

Vue satellite de CA993